createdAt,value
2018-11-28T00:00:04.778Z,984.31
2018-11-28T00:01:04.890Z,984.28
2018-11-28T00:02:05.201Z,984.20
2018-11-28T00:03:05.207Z,984.26
2018-11-28T00:04:04.828Z,984.23
2018-11-28T00:05:05.122Z,984.09
2018-11-28T00:06:05.125Z,984.20
2018-11-28T00:07:04.700Z,984.14
2018-11-28T00:08:04.927Z,984.26
2018-11-28T00:09:05.384Z,984.31
2018-11-28T00:10:05.289Z,984.31
2018-11-28T00:11:04.502Z,984.26
2018-11-28T00:12:04.610Z,984.37
2018-11-28T00:13:04.911Z,984.26
2018-11-28T00:14:05.492Z,984.23
2018-11-28T00:15:04.585Z,984.17
2018-11-28T00:16:04.926Z,984.34
2018-11-28T00:17:05.083Z,984.37
2018-11-28T00:18:04.749Z,984.31
2018-11-28T00:19:05.563Z,984.37
2018-11-28T00:20:05.212Z,984.42
2018-11-28T00:21:05.291Z,984.31
2018-11-28T00:22:05.490Z,984.31
2018-11-28T00:23:05.164Z,984.37
2018-11-28T00:24:04.535Z,984.42
2018-11-28T00:25:05.195Z,984.28
2018-11-28T00:26:05.264Z,984.25
2018-11-28T00:27:04.747Z,984.34
2018-11-28T00:28:09.913Z,984.34
2018-11-28T00:29:05.338Z,984.23
2018-11-28T00:30:04.852Z,984.20
2018-11-28T00:31:05.285Z,984.39
2018-11-28T00:32:05.468Z,984.34
2018-11-28T00:33:05.614Z,984.28
2018-11-28T00:34:04.893Z,984.28
2018-11-28T00:35:05.469Z,984.45
2018-11-28T00:36:04.752Z,984.45
2018-11-28T00:37:04.862Z,984.42
2018-11-28T00:38:04.807Z,984.31
2018-11-28T00:39:05.406Z,984.34
2018-11-28T00:40:04.614Z,984.47
2018-11-28T00:41:04.690Z,984.36
2018-11-28T00:42:05.004Z,984.36
2018-11-28T00:43:05.378Z,984.36
2018-11-28T00:44:05.363Z,984.47
2018-11-28T00:45:04.605Z,984.39
2018-11-28T00:46:04.875Z,984.28
2018-11-28T00:47:04.961Z,984.39
2018-11-28T00:48:04.886Z,984.36
2018-11-28T00:49:05.044Z,984.34
2018-11-28T00:50:05.110Z,984.36
2018-11-28T00:51:05.138Z,984.34
2018-11-28T00:52:05.240Z,984.36
2018-11-28T00:53:04.886Z,984.36
2018-11-28T00:54:05.222Z,984.42
2018-11-28T00:55:05.028Z,984.45
2018-11-28T00:56:05.549Z,984.45
2018-11-28T00:57:05.066Z,984.56
2018-11-28T00:58:05.039Z,984.42
2018-11-28T00:59:04.716Z,984.45
2018-11-28T01:00:04.823Z,984.64
2018-11-28T01:01:04.907Z,984.50
2018-11-28T01:02:04.936Z,984.50
2018-11-28T01:03:05.094Z,984.61
2018-11-28T01:04:04.461Z,984.45
2018-11-28T01:05:04.782Z,984.56
2018-11-28T01:06:04.796Z,984.50
2018-11-28T01:07:05.437Z,984.53
2018-11-28T01:08:04.798Z,984.56
2018-11-28T01:09:04.851Z,984.50
2018-11-28T01:10:04.835Z,984.42
2018-11-28T01:11:04.567Z,984.56
2018-11-28T01:12:04.917Z,984.42
2018-11-28T01:13:04.924Z,984.48
2018-11-28T01:14:04.699Z,984.42
2018-11-28T01:15:05.278Z,984.36
2018-11-28T01:16:05.390Z,984.47
2018-11-28T01:17:04.843Z,984.36
2018-11-28T01:18:05.403Z,984.50
2018-11-28T01:19:04.635Z,984.53
2018-11-28T01:20:04.524Z,984.61
2018-11-28T01:21:05.132Z,984.47
2018-11-28T01:22:05.066Z,984.45
2018-11-28T01:23:05.501Z,984.56
2018-11-28T01:24:04.523Z,984.50
2018-11-28T01:25:05.153Z,984.56
2018-11-28T01:26:05.104Z,984.61
2018-11-28T01:27:04.573Z,984.61
2018-11-28T01:28:10.348Z,984.53
2018-11-28T01:29:04.769Z,984.61
2018-11-28T01:30:05.224Z,984.56
2018-11-28T01:31:05.126Z,984.64
2018-11-28T01:32:05.279Z,984.58
2018-11-28T01:33:05.259Z,984.58
2018-11-28T01:34:05.412Z,984.61
2018-11-28T01:35:04.742Z,984.67
2018-11-28T01:36:05.498Z,984.61
2018-11-28T01:37:04.697Z,984.69
2018-11-28T01:38:04.793Z,984.58
2018-11-28T01:39:04.719Z,984.50
2018-11-28T01:40:04.958Z,984.67
2018-11-28T01:41:04.659Z,984.61
2018-11-28T01:42:04.747Z,984.67
2018-11-28T01:43:05.076Z,984.64
2018-11-28T01:44:05.270Z,984.58
2018-11-28T01:45:04.535Z,984.58
2018-11-28T01:46:04.630Z,984.55
2018-11-28T01:47:04.791Z,984.61
2018-11-28T01:48:04.916Z,984.58
2018-11-28T01:49:05.054Z,984.58
2018-11-28T01:50:05.165Z,984.58
2018-11-28T01:51:05.512Z,984.55
2018-11-28T01:52:05.471Z,984.50
2018-11-28T01:53:05.423Z,984.67
2018-11-28T01:54:04.743Z,984.61
2018-11-28T01:55:05.247Z,984.64
2018-11-28T01:56:05.305Z,984.79
2018-11-28T01:57:04.503Z,984.53
2018-11-28T01:58:04.754Z,984.53
2018-11-28T01:59:04.834Z,984.55
2018-11-28T02:00:04.963Z,984.58
2018-11-28T02:01:04.889Z,984.69
2018-11-28T02:02:05.195Z,984.69
2018-11-28T02:03:04.762Z,984.69
2018-11-28T02:04:04.724Z,984.64
2018-11-28T02:05:04.826Z,984.69
2018-11-28T02:06:05.040Z,984.75
2018-11-28T02:07:05.196Z,984.66
2018-11-28T02:08:05.580Z,984.72
2018-11-28T02:09:04.811Z,984.82
2018-11-28T02:10:04.677Z,984.64
2018-11-28T02:11:05.504Z,984.77
2018-11-28T02:12:05.039Z,984.66
2018-11-28T02:13:05.304Z,984.55
2018-11-28T02:14:04.532Z,984.75
2018-11-28T02:15:04.525Z,984.61
2018-11-28T02:16:04.595Z,984.61
2018-11-28T02:17:04.958Z,984.61
2018-11-28T02:18:04.911Z,984.58
2018-11-28T02:19:04.969Z,984.64
2018-11-28T02:20:05.235Z,984.69
2018-11-28T02:21:05.397Z,984.69
2018-11-28T02:22:04.930Z,984.64
2018-11-28T02:23:05.332Z,984.52
2018-11-28T02:24:05.252Z,984.63
2018-11-28T02:25:05.376Z,984.58
2018-11-28T02:26:05.488Z,984.61
2018-11-28T02:27:04.911Z,984.63
2018-11-28T02:28:04.948Z,984.69
2018-11-28T02:29:04.521Z,984.63
2018-11-28T02:30:05.339Z,984.55
2018-11-28T02:31:05.257Z,984.63
2018-11-28T02:32:05.438Z,984.69
2018-11-28T02:33:04.579Z,984.61
2018-11-28T02:34:04.657Z,984.66
2018-11-28T02:35:04.754Z,984.66
2018-11-28T02:36:04.892Z,984.61
2018-11-28T02:37:05.008Z,984.69
2018-11-28T02:38:05.193Z,984.66
2018-11-28T02:39:05.450Z,984.66
2018-11-28T02:40:04.594Z,984.61
2018-11-28T02:41:05.066Z,984.61
2018-11-28T02:42:05.119Z,984.72
2018-11-28T02:43:05.050Z,984.61
2018-11-28T02:44:05.261Z,984.61
2018-11-28T02:45:09.727Z,984.77
2018-11-28T02:46:05.121Z,984.79
2018-11-28T02:47:05.247Z,984.69
2018-11-28T02:48:04.671Z,984.77
2018-11-28T02:49:04.875Z,984.72
2018-11-28T02:50:05.038Z,984.79
2018-11-28T02:51:04.940Z,984.77
2018-11-28T02:52:05.120Z,984.82
2018-11-28T02:53:05.262Z,984.85
2018-11-28T02:54:04.618Z,984.64
2018-11-28T02:55:04.973Z,984.90
2018-11-28T02:56:05.150Z,984.72
2018-11-28T02:57:05.443Z,984.72
2018-11-28T02:58:05.333Z,984.88
2018-11-28T02:59:05.053Z,984.88
2018-11-28T03:00:05.307Z,984.72
2018-11-28T03:01:05.582Z,984.69
2018-11-28T03:02:04.898Z,984.77
2018-11-28T03:03:05.052Z,984.79
2018-11-28T03:04:05.246Z,984.75
2018-11-28T03:05:04.780Z,984.67
2018-11-28T03:06:04.780Z,984.72
2018-11-28T03:07:05.116Z,984.75
2018-11-28T03:08:05.174Z,984.72
2018-11-28T03:09:04.546Z,984.79
2018-11-28T03:10:04.729Z,984.64
2018-11-28T03:11:04.721Z,984.69
2018-11-28T03:12:04.806Z,984.61
2018-11-28T03:13:04.947Z,984.72
2018-11-28T03:14:05.411Z,984.61
2018-11-28T03:15:04.676Z,984.69
2018-11-28T03:16:05.108Z,984.61
2018-11-28T03:17:04.532Z,984.64
2018-11-28T03:18:05.228Z,984.75
2018-11-28T03:19:05.229Z,984.69
2018-11-28T03:20:04.781Z,984.67
2018-11-28T03:21:05.164Z,984.85
2018-11-28T03:22:04.783Z,984.75
2018-11-28T03:23:04.877Z,984.61
2018-11-28T03:24:05.021Z,984.80
2018-11-28T03:25:05.363Z,984.88
2018-11-28T03:26:05.355Z,984.72
2018-11-28T03:27:05.559Z,984.72
2018-11-28T03:28:09.718Z,984.72
2018-11-28T03:29:05.113Z,984.75
2018-11-28T03:30:05.261Z,984.70
2018-11-28T03:31:05.263Z,984.67
2018-11-28T03:32:04.997Z,984.77
2018-11-28T03:33:05.446Z,984.70
2018-11-28T03:34:04.780Z,984.80
2018-11-28T03:35:04.859Z,984.61
2018-11-28T03:36:05.388Z,984.75
2018-11-28T03:37:04.561Z,984.83
2018-11-28T03:38:04.874Z,984.72
2018-11-28T03:39:04.994Z,984.70
2018-11-28T03:40:05.176Z,984.75
2018-11-28T03:41:05.446Z,984.80
2018-11-28T03:42:04.827Z,984.73
2018-11-28T03:43:05.096Z,984.86
2018-11-28T03:44:04.795Z,984.77
2018-11-28T03:45:04.892Z,984.67
2018-11-28T03:46:05.132Z,984.70
2018-11-28T03:47:05.628Z,984.83
2018-11-28T03:48:10.281Z,984.80
2018-11-28T03:49:04.759Z,984.80
2018-11-28T03:50:04.862Z,984.73
2018-11-28T03:51:04.730Z,984.88
2018-11-28T03:52:05.548Z,985.00
2018-11-28T03:53:04.895Z,984.89
2018-11-28T03:54:05.161Z,984.80
2018-11-28T03:55:05.566Z,984.91
2018-11-28T03:56:05.266Z,984.97
2018-11-28T03:57:04.934Z,984.97
2018-11-28T03:58:05.234Z,984.97
2018-11-28T03:59:04.559Z,984.91
2018-11-28T04:00:05.183Z,984.97
2018-11-28T04:01:04.667Z,984.91
2018-11-28T04:02:04.652Z,984.83
2018-11-28T04:03:04.780Z,984.89
2018-11-28T04:04:05.111Z,985.00
2018-11-28T04:05:04.667Z,985.00
2018-11-28T04:06:04.683Z,985.03
2018-11-28T04:07:04.922Z,984.92
2018-11-28T04:08:05.004Z,984.97
2018-11-28T04:09:05.360Z,984.81
2018-11-28T04:10:04.551Z,985.03
2018-11-28T04:11:05.332Z,984.95
2018-11-28T04:12:05.576Z,984.95
2018-11-28T04:13:04.535Z,984.92
2018-11-28T04:14:04.900Z,984.92
2018-11-28T04:15:05.231Z,984.95
2018-11-28T04:16:04.766Z,985.06
2018-11-28T04:17:05.384Z,984.95
2018-11-28T04:18:04.560Z,984.97
2018-11-28T04:19:04.590Z,985.06
2018-11-28T04:20:04.732Z,984.95
2018-11-28T04:21:04.998Z,984.89
2018-11-28T04:22:04.536Z,984.86
2018-11-28T04:23:04.729Z,985.00
2018-11-28T04:24:04.806Z,984.84
2018-11-28T04:25:04.853Z,984.98
2018-11-28T04:26:05.162Z,984.86
2018-11-28T04:27:05.132Z,984.95
2018-11-28T04:28:10.426Z,984.92
2018-11-28T04:29:04.971Z,984.86
2018-11-28T04:30:05.363Z,984.89
2018-11-28T04:31:04.703Z,984.95
2018-11-28T04:32:05.254Z,985.00
2018-11-28T04:33:04.740Z,985.11
2018-11-28T04:34:05.052Z,985.03
2018-11-28T04:35:05.201Z,985.06
2018-11-28T04:36:05.320Z,984.92
2018-11-28T04:37:04.892Z,984.92
2018-11-28T04:38:05.364Z,984.92
2018-11-28T04:39:04.702Z,984.92
2018-11-28T04:40:04.837Z,984.98
2018-11-28T04:41:05.695Z,984.87
2018-11-28T04:42:05.457Z,984.95
2018-11-28T04:43:05.530Z,984.84
2018-11-28T04:44:05.452Z,984.98
2018-11-28T04:45:05.443Z,985.15
2018-11-28T04:46:04.690Z,984.92
2018-11-28T04:47:04.738Z,984.95
2018-11-28T04:48:04.975Z,984.95
2018-11-28T04:49:05.096Z,984.87
2018-11-28T04:50:05.137Z,984.90
2018-11-28T04:51:05.129Z,984.84
2018-11-28T04:52:05.393Z,985.01
2018-11-28T04:53:04.897Z,984.90
2018-11-28T04:54:05.174Z,984.95
2018-11-28T04:55:05.176Z,984.90
2018-11-28T04:56:04.776Z,984.98
2018-11-28T04:57:04.770Z,985.09
2018-11-28T04:58:05.420Z,985.01
2018-11-28T04:59:05.019Z,985.04
2018-11-28T05:00:05.484Z,984.98
2018-11-28T05:01:05.233Z,984.98
2018-11-28T05:02:05.457Z,985.04
2018-11-28T05:03:04.784Z,984.98
2018-11-28T05:04:04.685Z,985.07
2018-11-28T05:05:05.439Z,984.90
2018-11-28T05:06:05.316Z,984.93
2018-11-28T05:07:05.343Z,985.01
2018-11-28T05:08:05.035Z,984.93
2018-11-28T05:09:05.094Z,984.82
2018-11-28T05:10:05.155Z,984.84
2018-11-28T05:11:04.875Z,984.84
2018-11-28T05:12:05.677Z,984.93
2018-11-28T05:13:04.569Z,985.09
2018-11-28T05:14:04.719Z,984.87
2018-11-28T05:15:04.817Z,985.07
2018-11-28T05:16:05.147Z,985.04
2018-11-28T05:17:04.580Z,984.90
2018-11-28T05:18:05.312Z,984.98
2018-11-28T05:19:04.723Z,984.96
2018-11-28T05:20:04.716Z,984.98
2018-11-28T05:21:04.949Z,984.96
2018-11-28T05:22:04.856Z,984.98
2018-11-28T05:23:05.095Z,985.04
2018-11-28T05:24:05.289Z,984.95
2018-11-28T05:25:05.649Z,984.98
2018-11-28T05:26:04.897Z,984.93
2018-11-28T05:27:05.146Z,984.90
2018-11-28T05:28:05.195Z,984.98
2018-11-28T05:29:05.499Z,984.90
2018-11-28T05:30:04.898Z,985.12
2018-11-28T05:31:04.927Z,985.01
2018-11-28T05:32:05.099Z,985.01
2018-11-28T05:33:04.682Z,985.04
2018-11-28T05:34:04.714Z,984.98
2018-11-28T05:35:05.267Z,985.01
2018-11-28T05:36:05.146Z,985.06
2018-11-28T05:37:05.343Z,984.92
2018-11-28T05:38:04.917Z,985.01
2018-11-28T05:39:05.233Z,984.84
2018-11-28T05:40:05.223Z,985.01
2018-11-28T05:41:04.932Z,984.95
2018-11-28T05:42:05.201Z,984.98
2018-11-28T05:43:05.165Z,984.90
2018-11-28T05:44:04.821Z,985.12
2018-11-28T05:45:04.890Z,984.98
2018-11-28T05:46:05.069Z,984.98
2018-11-28T05:47:05.316Z,985.04
2018-11-28T05:48:10.454Z,984.95
2018-11-28T05:49:04.805Z,985.01
2018-11-28T05:50:05.410Z,984.95
2018-11-28T05:51:04.712Z,985.07
2018-11-28T05:52:05.255Z,985.07
2018-11-28T05:53:05.300Z,984.93
2018-11-28T05:54:05.392Z,984.98
2018-11-28T05:55:04.841Z,984.90
2018-11-28T05:56:05.166Z,985.07
2018-11-28T05:57:04.872Z,984.98
2018-11-28T05:58:05.204Z,984.96
2018-11-28T05:59:05.457Z,984.96
2018-11-28T06:00:05.319Z,985.26
2018-11-28T06:01:04.610Z,985.12
2018-11-28T06:02:05.192Z,984.98
2018-11-28T06:03:05.480Z,985.12
2018-11-28T06:04:04.809Z,985.10
2018-11-28T06:05:05.267Z,985.07
2018-11-28T06:06:05.013Z,985.04
2018-11-28T06:07:04.889Z,985.04
2018-11-28T06:08:04.695Z,985.07
2018-11-28T06:09:04.613Z,985.04
2018-11-28T06:10:04.954Z,985.04
2018-11-28T06:11:04.754Z,985.10
2018-11-28T06:12:05.282Z,985.21
2018-11-28T06:13:04.631Z,985.07
2018-11-28T06:14:04.954Z,985.07
2018-11-28T06:15:05.367Z,985.15
2018-11-28T06:16:04.762Z,985.04
2018-11-28T06:17:04.887Z,985.18
2018-11-28T06:18:04.629Z,985.13
2018-11-28T06:19:04.905Z,985.10
2018-11-28T06:20:05.340Z,985.16
2018-11-28T06:21:05.070Z,985.16
2018-11-28T06:22:05.141Z,985.24
2018-11-28T06:23:05.370Z,985.13
2018-11-28T06:24:04.859Z,985.13
2018-11-28T06:25:04.957Z,985.18
2018-11-28T06:26:04.820Z,985.18
2018-11-28T06:27:05.368Z,985.27
2018-11-28T06:28:10.415Z,985.24
2018-11-28T06:29:04.962Z,985.37
2018-11-28T06:30:05.185Z,985.34
2018-11-28T06:31:05.105Z,985.16
2018-11-28T06:32:05.364Z,985.37
2018-11-28T06:33:05.156Z,985.10
2018-11-28T06:34:05.293Z,985.37
2018-11-28T06:35:05.555Z,985.21
2018-11-28T06:36:04.695Z,985.24
2018-11-28T06:37:04.959Z,985.30
2018-11-28T06:38:04.957Z,985.37
2018-11-28T06:39:05.083Z,985.24
2018-11-28T06:40:05.291Z,985.35
2018-11-28T06:41:05.339Z,985.19
2018-11-28T06:42:05.103Z,985.30
2018-11-28T06:43:05.073Z,985.40
2018-11-28T06:44:05.023Z,985.27
2018-11-28T06:45:04.659Z,985.37
2018-11-28T06:46:05.510Z,985.27
2018-11-28T06:47:04.654Z,985.43
2018-11-28T06:48:04.788Z,985.43
2018-11-28T06:49:04.822Z,985.35
2018-11-28T06:50:04.842Z,985.19
2018-11-28T06:51:04.848Z,985.30
2018-11-28T06:52:05.154Z,985.40
2018-11-28T06:53:05.436Z,985.43
2018-11-28T06:54:04.646Z,985.37
2018-11-28T06:55:05.068Z,985.35
2018-11-28T06:56:04.832Z,985.37
2018-11-28T06:57:05.003Z,985.57
2018-11-28T06:58:04.745Z,985.34
2018-11-28T06:59:05.280Z,985.40
2018-11-28T07:00:05.016Z,985.54
2018-11-28T07:01:05.208Z,985.48
2018-11-28T07:02:05.128Z,985.37
2018-11-28T07:03:05.392Z,985.37
2018-11-28T07:04:04.656Z,985.43
2018-11-28T07:05:04.903Z,985.43
2018-11-28T07:06:05.072Z,985.54
2018-11-28T07:07:05.557Z,985.40
2018-11-28T07:08:05.018Z,985.59
2018-11-28T07:09:05.162Z,985.43
2018-11-28T07:10:05.437Z,985.46
2018-11-28T07:11:05.198Z,985.57
2018-11-28T07:12:04.696Z,985.62
2018-11-28T07:13:05.006Z,985.57
2018-11-28T07:14:04.952Z,985.65
2018-11-28T07:15:05.068Z,985.57
2018-11-28T07:16:05.154Z,985.48
2018-11-28T07:17:04.788Z,985.68
2018-11-28T07:18:05.126Z,985.56
2018-11-28T07:19:05.023Z,985.65
2018-11-28T07:20:05.052Z,985.65
2018-11-28T07:21:05.468Z,985.65
2018-11-28T07:22:05.432Z,985.54
2018-11-28T07:23:04.601Z,985.62
2018-11-28T07:24:04.879Z,985.65
2018-11-28T07:25:05.176Z,985.76
2018-11-28T07:26:04.921Z,985.84
2018-11-28T07:27:05.131Z,985.90
2018-11-28T07:28:09.702Z,985.84
2018-11-28T07:29:05.156Z,985.81
2018-11-28T07:30:04.661Z,985.67
2018-11-28T07:31:04.717Z,985.76
2018-11-28T07:32:05.606Z,985.81
2018-11-28T07:33:04.561Z,985.73
2018-11-28T07:34:05.239Z,985.70
2018-11-28T07:35:05.370Z,985.67
2018-11-28T07:36:05.534Z,985.75
2018-11-28T07:37:04.600Z,985.98
2018-11-28T07:38:04.856Z,985.84
2018-11-28T07:39:05.111Z,985.89
2018-11-28T07:40:05.396Z,985.86
2018-11-28T07:41:04.697Z,985.78
2018-11-28T07:42:05.218Z,985.86
2018-11-28T07:43:05.341Z,985.94
2018-11-28T07:44:05.390Z,985.94
2018-11-28T07:45:04.781Z,985.83
2018-11-28T07:46:05.132Z,985.81
2018-11-28T07:47:04.807Z,985.97
2018-11-28T07:48:10.401Z,985.86
2018-11-28T07:49:05.020Z,986.00
2018-11-28T07:50:04.945Z,985.86
2018-11-28T07:51:05.231Z,985.91
2018-11-28T07:52:04.885Z,986.00
2018-11-28T07:53:04.919Z,985.94
2018-11-28T07:54:05.055Z,986.05
2018-11-28T07:55:05.125Z,986.00
2018-11-28T07:56:05.281Z,986.00
2018-11-28T07:57:05.216Z,986.00
2018-11-28T07:58:05.429Z,986.02
2018-11-28T07:59:04.778Z,985.86
2018-11-28T08:00:05.001Z,985.94
2018-11-28T08:01:05.194Z,985.88
2018-11-28T08:02:05.646Z,986.05
2018-11-28T08:03:04.866Z,985.99
2018-11-28T08:04:05.398Z,985.91
2018-11-28T08:05:04.759Z,985.96
2018-11-28T08:06:04.772Z,985.91
2018-11-28T08:07:04.703Z,986.05
2018-11-28T08:08:05.319Z,985.96
2018-11-28T08:09:05.504Z,986.10
2018-11-28T08:10:04.837Z,985.91
2018-11-28T08:11:05.034Z,985.93
2018-11-28T08:12:04.696Z,985.88
2018-11-28T08:13:04.924Z,985.99
2018-11-28T08:14:05.089Z,986.04
2018-11-28T08:15:05.209Z,985.90
2018-11-28T08:16:05.129Z,986.01
2018-11-28T08:17:04.907Z,985.96
2018-11-28T08:18:05.097Z,985.96
2018-11-28T08:19:04.693Z,986.07
2018-11-28T08:20:05.214Z,985.93
2018-11-28T08:21:05.292Z,985.87
2018-11-28T08:22:05.325Z,986.01
2018-11-28T08:23:05.323Z,985.98
2018-11-28T08:24:05.397Z,986.01
2018-11-28T08:25:06.064Z,985.98
2018-11-28T08:26:05.125Z,986.09
2018-11-28T08:27:04.693Z,985.95
2018-11-28T08:28:10.103Z,985.93
2018-11-28T08:29:04.535Z,986.01
2018-11-28T08:30:04.641Z,986.01
2018-11-28T08:31:05.282Z,986.09
2018-11-28T08:32:05.484Z,986.23
2018-11-28T08:33:04.751Z,986.06
2018-11-28T08:34:05.084Z,986.01
2018-11-28T08:35:05.052Z,986.23
2018-11-28T08:36:05.226Z,986.20
2018-11-28T08:37:05.435Z,986.23
2018-11-28T08:38:05.474Z,986.17
2018-11-28T08:39:04.605Z,986.25
2018-11-28T08:40:04.827Z,986.00
2018-11-28T08:41:04.625Z,986.03
2018-11-28T08:42:05.311Z,986.06
2018-11-28T08:43:04.543Z,986.03
2018-11-28T08:44:05.179Z,986.00
2018-11-28T08:45:05.138Z,986.20
2018-11-28T08:46:05.299Z,986.06
2018-11-28T08:47:04.743Z,985.97
2018-11-28T08:48:10.238Z,986.06
2018-11-28T08:49:04.839Z,985.97
2018-11-28T08:50:04.875Z,986.14
2018-11-28T08:51:04.943Z,986.11
2018-11-28T08:52:05.281Z,986.06
2018-11-28T08:53:05.171Z,986.17
2018-11-28T08:54:05.103Z,986.00
2018-11-28T08:55:05.104Z,986.08
2018-11-28T08:56:05.152Z,986.11
2018-11-28T08:57:04.779Z,986.14
2018-11-28T08:58:04.732Z,986.14
2018-11-28T08:59:05.145Z,986.19
2018-11-28T09:00:05.212Z,986.05
2018-11-28T09:01:05.346Z,986.17
2018-11-28T09:02:05.440Z,986.22
2018-11-28T09:03:05.104Z,986.16
2018-11-28T09:04:05.187Z,986.08
2018-11-28T09:05:04.982Z,986.19
2018-11-28T09:06:05.078Z,986.11
2018-11-28T09:07:05.569Z,986.13
2018-11-28T09:08:04.810Z,986.13
2018-11-28T09:09:04.983Z,986.05
2018-11-28T09:10:05.057Z,986.02
2018-11-28T09:11:05.109Z,986.19
2018-11-28T09:12:05.012Z,986.10
2018-11-28T09:13:04.980Z,986.16
2018-11-28T09:14:05.522Z,986.07
2018-11-28T09:15:04.774Z,986.10
2018-11-28T09:16:04.772Z,986.16
2018-11-28T09:17:05.343Z,986.16
2018-11-28T09:18:04.636Z,986.27
2018-11-28T09:19:04.629Z,986.32
2018-11-28T09:20:05.149Z,986.18
2018-11-28T09:21:05.170Z,986.29
2018-11-28T09:22:05.440Z,986.29
2018-11-28T09:23:05.393Z,986.26
2018-11-28T09:24:04.870Z,986.32
2018-11-28T09:25:04.932Z,986.32
2018-11-28T09:26:04.995Z,986.32
2018-11-28T09:27:04.919Z,986.48
2018-11-28T09:28:10.542Z,986.46
2018-11-28T09:29:05.032Z,986.29
2018-11-28T09:30:05.323Z,986.37
2018-11-28T09:31:04.923Z,986.40
2018-11-28T09:32:05.464Z,986.20
2018-11-28T09:33:05.110Z,986.26
2018-11-28T09:34:04.680Z,986.45
2018-11-28T09:35:04.970Z,986.40
2018-11-28T09:36:04.518Z,986.31
2018-11-28T09:37:04.799Z,986.26
2018-11-28T09:38:05.016Z,986.37
2018-11-28T09:39:05.112Z,986.37
2018-11-28T09:40:05.171Z,986.37
2018-11-28T09:41:05.473Z,986.31
2018-11-28T09:42:04.561Z,986.22
2018-11-28T09:43:04.604Z,986.28
2018-11-28T09:44:04.677Z,986.36
2018-11-28T09:45:05.216Z,986.39
2018-11-28T09:46:05.606Z,986.36
2018-11-28T09:47:04.723Z,986.36
2018-11-28T09:48:04.733Z,986.25
2018-11-28T09:49:04.826Z,986.39
2018-11-28T09:50:05.056Z,986.33
2018-11-28T09:51:05.472Z,986.19
2018-11-28T09:52:04.898Z,986.16
2018-11-28T09:53:04.724Z,986.19
2018-11-28T09:54:04.792Z,986.25
2018-11-28T09:55:06.199Z,986.41
2018-11-28T09:56:05.353Z,986.27
2018-11-28T09:57:05.334Z,986.10
2018-11-28T09:58:04.984Z,986.22
2018-11-28T09:59:05.258Z,986.22
2018-11-28T10:00:04.613Z,986.22
2018-11-28T10:01:04.664Z,986.38
2018-11-28T10:02:05.311Z,986.44
2018-11-28T10:03:05.458Z,986.44
2018-11-28T10:04:04.845Z,986.35
2018-11-28T10:05:04.990Z,986.27
2018-11-28T10:06:05.160Z,986.35
2018-11-28T10:07:05.116Z,986.16
2018-11-28T10:08:05.134Z,986.21
2018-11-28T10:09:05.233Z,986.27
2018-11-28T10:10:05.305Z,986.21
2018-11-28T10:11:04.620Z,986.10
2018-11-28T10:12:04.742Z,986.24
2018-11-28T10:13:04.864Z,986.26
2018-11-28T10:14:04.900Z,986.15
2018-11-28T10:15:05.400Z,986.07
2018-11-28T10:16:05.449Z,986.21
2018-11-28T10:17:04.881Z,986.15
2018-11-28T10:18:04.957Z,986.09
2018-11-28T10:19:04.951Z,986.18
2018-11-28T10:20:05.115Z,985.90
2018-11-28T10:21:05.821Z,986.09
2018-11-28T10:22:04.784Z,985.98
2018-11-28T10:23:04.867Z,986.09
2018-11-28T10:24:05.365Z,986.09
2018-11-28T10:25:05.473Z,986.03
2018-11-28T10:26:05.437Z,986.06
2018-11-28T10:27:04.953Z,986.25
2018-11-28T10:28:10.073Z,986.00
2018-11-28T10:29:05.567Z,986.00
2018-11-28T10:30:04.705Z,985.97
2018-11-28T10:31:05.035Z,986.00
2018-11-28T10:32:05.379Z,986.17
2018-11-28T10:33:05.354Z,985.97
2018-11-28T10:34:04.676Z,985.88
2018-11-28T10:35:05.162Z,986.00
2018-11-28T10:36:05.433Z,985.97
2018-11-28T10:37:05.157Z,985.94
2018-11-28T10:38:04.911Z,986.08
2018-11-28T10:39:05.173Z,985.99
2018-11-28T10:40:05.406Z,986.05
2018-11-28T10:41:04.522Z,986.08
2018-11-28T10:42:04.585Z,986.02
2018-11-28T10:43:04.921Z,986.10
2018-11-28T10:44:05.100Z,986.08
2018-11-28T10:45:05.488Z,986.10
2018-11-28T10:46:04.603Z,986.10
2018-11-28T10:47:05.471Z,986.13
2018-11-28T10:48:10.571Z,985.94
2018-11-28T10:49:05.035Z,985.94
2018-11-28T10:50:04.676Z,985.94
2018-11-28T10:51:04.804Z,985.96
2018-11-28T10:52:05.223Z,985.96
2018-11-28T10:53:04.674Z,985.99
2018-11-28T10:54:04.929Z,985.88
2018-11-28T10:55:05.503Z,985.88
2018-11-28T10:56:05.093Z,986.16
2018-11-28T10:57:04.887Z,986.07
2018-11-28T10:58:05.539Z,985.90
2018-11-28T10:59:04.940Z,985.96
2018-11-28T11:00:04.708Z,986.07
2018-11-28T11:01:04.555Z,986.10
2018-11-28T11:02:05.083Z,985.96
2018-11-28T11:03:05.024Z,985.99
2018-11-28T11:04:05.351Z,985.99
2018-11-28T11:05:04.607Z,985.90
2018-11-28T11:06:04.968Z,985.96
2018-11-28T11:07:05.134Z,986.01
2018-11-28T11:08:05.250Z,986.18
2018-11-28T11:09:05.243Z,986.10
2018-11-28T11:10:05.429Z,986.01
2018-11-28T11:11:04.953Z,985.98
2018-11-28T11:12:05.349Z,986.09
2018-11-28T11:13:05.515Z,986.04
2018-11-28T11:14:04.729Z,985.93
2018-11-28T11:15:04.624Z,986.09
2018-11-28T11:16:05.364Z,985.95
2018-11-28T11:17:05.446Z,986.18
2018-11-28T11:18:11.162Z,985.98
2018-11-28T11:19:04.925Z,985.93
2018-11-28T11:20:04.923Z,986.09
2018-11-28T11:21:05.380Z,986.04
2018-11-28T11:22:05.231Z,986.04
2018-11-28T11:23:05.080Z,986.06
2018-11-28T11:24:04.930Z,986.15
2018-11-28T11:25:04.807Z,986.04
2018-11-28T11:26:05.103Z,986.01
2018-11-28T11:27:05.117Z,986.04
2018-11-28T11:28:10.560Z,985.90
2018-11-28T11:29:04.986Z,986.06
2018-11-28T11:30:04.629Z,986.01
2018-11-28T11:31:04.770Z,986.06
2018-11-28T11:32:04.849Z,985.95
2018-11-28T11:33:05.359Z,986.03
2018-11-28T11:34:05.488Z,985.98
2018-11-28T11:35:04.801Z,985.89
2018-11-28T11:36:04.564Z,985.95
2018-11-28T11:37:05.276Z,985.98
2018-11-28T11:38:04.657Z,985.95
2018-11-28T11:39:05.166Z,985.95
2018-11-28T11:40:04.843Z,985.92
2018-11-28T11:41:04.829Z,985.92
2018-11-28T11:42:05.253Z,985.89
2018-11-28T11:43:04.746Z,985.89
2018-11-28T11:44:04.993Z,985.92
2018-11-28T11:45:04.704Z,985.81
2018-11-28T11:46:04.760Z,985.86
2018-11-28T11:47:05.125Z,985.92
2018-11-28T11:48:05.258Z,985.95
2018-11-28T11:49:05.606Z,985.89
2018-11-28T11:50:06.352Z,985.86
2018-11-28T11:51:05.138Z,986.09
2018-11-28T11:52:05.179Z,985.83
2018-11-28T11:53:05.567Z,985.84
2018-11-28T11:54:04.711Z,985.75
2018-11-28T11:55:05.352Z,985.78
2018-11-28T11:56:05.349Z,985.75
2018-11-28T11:57:05.567Z,985.75
2018-11-28T11:58:04.474Z,985.84
2018-11-28T11:59:04.788Z,985.75
2018-11-28T12:00:05.338Z,985.75
2018-11-28T12:01:04.523Z,985.67
2018-11-28T12:02:04.831Z,985.64
2018-11-28T12:03:05.416Z,985.81
2018-11-28T12:04:05.105Z,985.75
2018-11-28T12:05:05.074Z,985.78
2018-11-28T12:06:04.852Z,985.70
2018-11-28T12:07:04.990Z,985.81
2018-11-28T12:08:05.070Z,985.78
2018-11-28T12:09:05.635Z,985.59
2018-11-28T12:10:09.386Z,985.81
2018-11-28T12:11:04.994Z,985.67
2018-11-28T12:12:05.552Z,985.70
2018-11-28T12:13:04.744Z,985.73
2018-11-28T12:14:04.626Z,985.53
2018-11-28T12:15:04.982Z,985.67
2018-11-28T12:16:05.105Z,985.67
2018-11-28T12:17:06.375Z,985.67
2018-11-28T12:18:05.185Z,985.59
2018-11-28T12:19:05.465Z,985.67
2018-11-28T12:20:05.061Z,985.62
2018-11-28T12:21:05.099Z,985.50
2018-11-28T12:22:05.468Z,985.62
2018-11-28T12:23:04.654Z,985.64
2018-11-28T12:24:04.761Z,985.64
2018-11-28T12:25:05.028Z,985.67
2018-11-28T12:26:05.390Z,985.70
2018-11-28T12:27:04.905Z,985.53
2018-11-28T12:28:10.133Z,985.73